createdAt,value
2022-09-03T00:00:16.219Z,0
2022-09-03T00:01:16.243Z,0
2022-09-03T00:02:16.219Z,0
2022-09-03T00:03:16.217Z,0
2022-09-03T00:04:16.217Z,4.2
2022-09-03T00:05:16.207Z,1.3
2022-09-03T00:06:16.215Z,0
2022-09-03T00:07:16.218Z,0
2022-09-03T00:08:16.221Z,0
2022-09-03T00:09:16.222Z,0
2022-09-03T00:10:16.256Z,2.4000000000000004
2022-09-03T00:11:16.224Z,1.3
2022-09-03T00:12:16.220Z,0
2022-09-03T00:13:16.210Z,0
2022-09-03T00:14:16.222Z,0
2022-09-03T00:15:16.219Z,0
2022-09-03T00:16:16.312Z,0
2022-09-03T00:17:16.220Z,0
2022-09-03T00:18:16.217Z,0
2022-09-03T00:19:16.218Z,0
2022-09-03T00:20:16.226Z,0
2022-09-03T00:21:16.224Z,0
2022-09-03T00:22:16.227Z,0
2022-09-03T00:23:16.231Z,0
2022-09-03T00:24:16.226Z,0
2022-09-03T00:25:16.227Z,0
2022-09-03T00:26:16.231Z,0
2022-09-03T00:27:16.232Z,0
2022-09-03T00:28:16.239Z,0
2022-09-03T00:29:16.238Z,0
2022-09-03T00:30:17.199Z,0
2022-09-03T00:31:16.295Z,0
2022-09-03T00:32:16.245Z,0
2022-09-03T00:33:16.245Z,0
2022-09-03T00:34:16.244Z,0
2022-09-03T00:35:16.257Z,0
2022-09-03T00:36:16.254Z,0
2022-09-03T00:37:16.246Z,0
2022-09-03T00:38:16.257Z,0
2022-09-03T00:39:16.350Z,0
2022-09-03T00:40:16.262Z,0
2022-09-03T00:41:16.263Z,0
2022-09-03T00:42:16.259Z,0
2022-09-03T00:43:16.266Z,0
2022-09-03T00:44:16.263Z,0
2022-09-03T00:45:16.272Z,0
2022-09-03T00:46:16.298Z,0
2022-09-03T00:47:16.273Z,0
2022-09-03T00:48:17.333Z,0
2022-09-03T00:49:16.273Z,0
2022-09-03T00:50:16.282Z,0
2022-09-03T00:51:16.270Z,0
2022-09-03T00:52:16.278Z,0
2022-09-03T00:53:16.274Z,0
2022-09-03T00:54:16.277Z,0
2022-09-03T00:55:16.278Z,0
2022-09-03T00:56:16.290Z,0
2022-09-03T00:57:16.276Z,0
2022-09-03T00:58:16.282Z,0
2022-09-03T00:59:16.278Z,0
2022-09-03T01:00:16.284Z,0
2022-09-03T01:01:16.387Z,0
2022-09-03T01:02:16.379Z,0
2022-09-03T01:03:16.287Z,0
2022-09-03T01:04:16.293Z,0
2022-09-03T01:05:16.289Z,0
2022-09-03T01:06:16.286Z,0
2022-09-03T01:07:16.292Z,0
2022-09-03T01:08:16.290Z,0
2022-09-03T01:09:16.286Z,0
2022-09-03T01:10:16.285Z,0
2022-09-03T01:11:16.288Z,0
2022-09-03T01:12:16.302Z,0
2022-09-03T01:13:16.284Z,0
2022-09-03T01:14:16.295Z,0
2022-09-03T01:15:16.290Z,0
2022-09-03T01:16:16.346Z,0
2022-09-03T01:17:16.293Z,0
2022-09-03T01:18:16.311Z,0
2022-09-03T01:19:16.295Z,0
2022-09-03T01:20:16.302Z,0
2022-09-03T01:21:16.306Z,0
2022-09-03T01:22:16.303Z,0
2022-09-03T01:23:16.304Z,0
2022-09-03T01:24:16.310Z,0
2022-09-03T01:25:16.309Z,0
2022-09-03T01:26:16.305Z,0
2022-09-03T01:27:16.308Z,0
2022-09-03T01:28:16.313Z,0
2022-09-03T01:29:16.325Z,0
2022-09-03T01:30:16.309Z,0
2022-09-03T01:31:16.362Z,0
2022-09-03T01:32:16.321Z,0
2022-09-03T01:33:16.321Z,0
2022-09-03T01:34:16.323Z,0
2022-09-03T01:35:16.371Z,0
2022-09-03T01:36:16.330Z,0
2022-09-03T01:37:16.322Z,0
2022-09-03T01:38:16.332Z,0
2022-09-03T01:39:16.383Z,0
2022-09-03T01:40:16.329Z,0
2022-09-03T01:41:16.326Z,0
2022-09-03T01:42:16.440Z,0
2022-09-03T01:43:16.333Z,0
2022-09-03T01:44:16.334Z,0
2022-09-03T01:45:16.338Z,0
2022-09-03T01:46:17.020Z,0
2022-09-03T01:47:16.336Z,0
2022-09-03T01:48:16.342Z,0
2022-09-03T01:49:16.331Z,0
2022-09-03T01:50:16.330Z,0
2022-09-03T01:51:16.341Z,0
2022-09-03T01:52:16.342Z,0
2022-09-03T01:53:16.345Z,0
2022-09-03T01:54:20.860Z,0
2022-09-03T01:55:16.336Z,0
2022-09-03T01:56:16.349Z,0
2022-09-03T01:57:19.183Z,0
2022-09-03T01:58:16.350Z,0
2022-09-03T01:59:16.351Z,0
2022-09-03T02:00:16.355Z,0
2022-09-03T02:01:18.088Z,0
2022-09-03T02:02:16.395Z,0
2022-09-03T02:03:16.350Z,0
2022-09-03T02:04:16.359Z,0
2022-09-03T02:05:16.356Z,0
2022-09-03T02:06:16.355Z,0
2022-09-03T02:07:16.363Z,0
2022-09-03T02:08:16.360Z,0
2022-09-03T02:09:16.361Z,0
2022-09-03T02:10:16.367Z,0
2022-09-03T02:11:16.362Z,0
2022-09-03T02:12:16.367Z,0
2022-09-03T02:13:16.363Z,0
2022-09-03T02:14:16.365Z,0
2022-09-03T02:15:16.370Z,0
2022-09-03T02:16:16.438Z,0
2022-09-03T02:17:16.371Z,0
2022-09-03T02:18:16.375Z,0
2022-09-03T02:19:16.365Z,0
2022-09-03T02:20:16.370Z,0
2022-09-03T02:21:16.373Z,0
2022-09-03T02:22:16.365Z,0
2022-09-03T02:23:16.375Z,0
2022-09-03T02:24:16.374Z,0
2022-09-03T02:25:16.379Z,0
2022-09-03T02:26:16.375Z,0
2022-09-03T02:27:16.378Z,0
2022-09-03T02:28:17.533Z,0
2022-09-03T02:29:16.380Z,0
2022-09-03T02:30:16.376Z,0
2022-09-03T02:31:16.464Z,0
2022-09-03T02:32:16.380Z,0
2022-09-03T02:33:16.377Z,0
2022-09-03T02:34:16.376Z,0
2022-09-03T02:35:16.381Z,0
2022-09-03T02:36:16.386Z,0
2022-09-03T02:37:16.387Z,0
2022-09-03T02:38:16.401Z,0
2022-09-03T02:39:16.456Z,0
2022-09-03T02:40:16.385Z,0
2022-09-03T02:41:16.390Z,0
2022-09-03T02:42:16.386Z,0
2022-09-03T02:43:16.380Z,0
2022-09-03T02:44:16.390Z,0
2022-09-03T02:45:16.387Z,0
2022-09-03T02:46:16.411Z,0
2022-09-03T02:47:16.382Z,0
2022-09-03T02:48:16.387Z,0
2022-09-03T02:49:16.390Z,0
2022-09-03T02:50:16.388Z,0
2022-09-03T02:51:16.387Z,0
2022-09-03T02:52:16.391Z,0
2022-09-03T02:53:16.385Z,0
2022-09-03T02:54:20.323Z,0
2022-09-03T02:55:16.394Z,0
2022-09-03T02:56:16.394Z,0
2022-09-03T02:57:16.400Z,0
2022-09-03T02:58:16.406Z,0
2022-09-03T02:59:16.388Z,0
2022-09-03T03:00:16.394Z,0
2022-09-03T03:01:18.087Z,0
2022-09-03T03:02:16.495Z,0
2022-09-03T03:03:16.395Z,0
2022-09-03T03:04:16.391Z,0
2022-09-03T03:05:16.402Z,0
2022-09-03T03:06:16.395Z,0
2022-09-03T03:07:16.410Z,0
2022-09-03T03:08:16.454Z,0
2022-09-03T03:09:16.402Z,0
2022-09-03T03:10:16.408Z,0
2022-09-03T03:11:16.420Z,0
2022-09-03T03:12:16.404Z,0
2022-09-03T03:13:16.405Z,0
2022-09-03T03:14:16.406Z,0
2022-09-03T03:15:16.399Z,0
2022-09-03T03:16:16.486Z,0
2022-09-03T03:17:16.413Z,0
2022-09-03T03:18:16.405Z,0
2022-09-03T03:19:16.412Z,0
2022-09-03T03:20:16.407Z,0
2022-09-03T03:21:16.401Z,0
2022-09-03T03:22:16.408Z,0
2022-09-03T03:23:16.417Z,0
2022-09-03T03:24:16.411Z,0
2022-09-03T03:25:16.411Z,0
2022-09-03T03:26:16.409Z,0
2022-09-03T03:27:16.404Z,0
2022-09-03T03:28:16.422Z,0
2022-09-03T03:29:16.408Z,0
2022-09-03T03:30:16.402Z,0
2022-09-03T03:31:16.460Z,0
2022-09-03T03:32:16.416Z,0
2022-09-03T03:33:16.415Z,0
2022-09-03T03:34:16.415Z,0
2022-09-03T03:35:16.410Z,0
2022-09-03T03:36:16.419Z,0
2022-09-03T03:37:16.423Z,0
2022-09-03T03:38:16.423Z,0
2022-09-03T03:39:16.596Z,0
2022-09-03T03:40:16.424Z,0
2022-09-03T03:41:16.417Z,0
2022-09-03T03:42:16.429Z,0
2022-09-03T03:43:16.435Z,0
2022-09-03T03:44:16.432Z,0
2022-09-03T03:45:16.439Z,0
2022-09-03T03:46:16.469Z,0
2022-09-03T03:47:16.438Z,0
2022-09-03T03:48:16.441Z,0
2022-09-03T03:49:16.437Z,0
2022-09-03T03:50:16.443Z,0
2022-09-03T03:51:16.443Z,0
2022-09-03T03:52:16.448Z,0
2022-09-03T03:53:16.448Z,0
2022-09-03T03:54:17.529Z,0
2022-09-03T03:55:16.439Z,0
2022-09-03T03:56:16.444Z,0
2022-09-03T03:57:16.451Z,0
2022-09-03T03:58:16.443Z,0
2022-09-03T03:59:16.440Z,0
2022-09-03T04:00:16.453Z,0
2022-09-03T04:01:16.534Z,0
2022-09-03T04:02:16.472Z,0
2022-09-03T04:03:16.460Z,0
2022-09-03T04:04:16.454Z,0
2022-09-03T04:05:16.443Z,0
2022-09-03T04:06:16.452Z,0
2022-09-03T04:07:16.461Z,0
2022-09-03T04:08:16.456Z,0
2022-09-03T04:09:16.461Z,0
2022-09-03T04:10:16.470Z,0
2022-09-03T04:11:16.458Z,0
2022-09-03T04:12:16.471Z,0
2022-09-03T04:13:16.464Z,0
2022-09-03T04:14:16.467Z,0
2022-09-03T04:15:16.476Z,0
2022-09-03T04:16:16.564Z,0
2022-09-03T04:17:16.477Z,0
2022-09-03T04:18:16.487Z,0
2022-09-03T04:19:16.470Z,0
2022-09-03T04:20:16.478Z,0
2022-09-03T04:21:16.468Z,0
2022-09-03T04:22:16.482Z,0
2022-09-03T04:23:16.475Z,0
2022-09-03T04:24:16.475Z,0
2022-09-03T04:25:16.480Z,0
2022-09-03T04:26:16.483Z,0
2022-09-03T04:27:16.484Z,0
2022-09-03T04:28:16.486Z,0
2022-09-03T04:29:16.479Z,0
2022-09-03T04:30:16.489Z,0
2022-09-03T04:31:16.589Z,0
2022-09-03T04:32:16.483Z,0
2022-09-03T04:33:16.543Z,0
2022-09-03T04:34:16.504Z,0
2022-09-03T04:35:16.496Z,0
2022-09-03T04:36:16.496Z,0
2022-09-03T04:37:16.500Z,0
2022-09-03T04:38:16.502Z,0
2022-09-03T04:39:16.546Z,0
2022-09-03T04:40:16.502Z,0
2022-09-03T04:41:16.505Z,0
2022-09-03T04:42:16.516Z,0
2022-09-03T04:43:16.508Z,0
2022-09-03T04:44:16.522Z,0
2022-09-03T04:45:16.519Z,0
2022-09-03T04:46:18.318Z,0
2022-09-03T04:47:16.517Z,0
2022-09-03T04:48:16.521Z,0
2022-09-03T04:49:16.515Z,0
2022-09-03T04:50:16.527Z,0
2022-09-03T04:51:16.517Z,0
2022-09-03T04:52:16.532Z,0
2022-09-03T04:53:16.524Z,0
2022-09-03T04:54:16.521Z,0
2022-09-03T04:55:16.530Z,0
2022-09-03T04:56:16.533Z,0
2022-09-03T04:57:16.532Z,0
2022-09-03T04:58:16.598Z,0
2022-09-03T04:59:16.520Z,0
2022-09-03T05:00:16.542Z,0
2022-09-03T05:01:16.593Z,0
2022-09-03T05:02:16.621Z,0
2022-09-03T05:03:16.538Z,0
2022-09-03T05:04:16.540Z,0
2022-09-03T05:05:16.544Z,0
2022-09-03T05:06:16.544Z,0
2022-09-03T05:07:16.548Z,0
2022-09-03T05:08:16.560Z,0
2022-09-03T05:09:16.552Z,0
2022-09-03T05:10:16.553Z,0
2022-09-03T05:11:16.561Z,0
2022-09-03T05:12:16.555Z,0
2022-09-03T05:13:16.553Z,0
2022-09-03T05:14:16.549Z,0
2022-09-03T05:15:16.548Z,0
2022-09-03T05:16:16.618Z,0
2022-09-03T05:17:16.556Z,0
2022-09-03T05:18:16.555Z,0
2022-09-03T05:19:16.555Z,0
2022-09-03T05:20:16.555Z,0
2022-09-03T05:21:16.558Z,0
2022-09-03T05:22:16.558Z,0
2022-09-03T05:23:16.558Z,0
2022-09-03T05:24:16.556Z,0
2022-09-03T05:25:16.555Z,0
2022-09-03T05:26:16.570Z,0
2022-09-03T05:27:16.559Z,0
2022-09-03T05:28:16.562Z,0
2022-09-03T05:29:16.568Z,0
2022-09-03T05:30:16.564Z,0
2022-09-03T05:31:16.711Z,0
2022-09-03T05:32:16.567Z,0
2022-09-03T05:33:16.557Z,0
2022-09-03T05:34:18.366Z,0
2022-09-03T05:35:16.559Z,0
2022-09-03T05:36:16.569Z,0
2022-09-03T05:37:16.572Z,0
2022-09-03T05:38:16.630Z,0
2022-09-03T05:39:16.622Z,0
2022-09-03T05:40:16.571Z,2.2
2022-09-03T05:41:16.575Z,0.8
2022-09-03T05:42:16.580Z,2
2022-09-03T05:43:16.580Z,1
2022-09-03T05:44:16.571Z,0
2022-09-03T05:45:16.579Z,0
2022-09-03T05:46:16.575Z,0
2022-09-03T05:47:16.575Z,0
2022-09-03T05:48:16.580Z,0
2022-09-03T05:49:16.587Z,0
2022-09-03T05:50:16.586Z,0
2022-09-03T05:51:16.613Z,0
2022-09-03T05:52:16.589Z,0.8
2022-09-03T05:53:16.584Z,1.7000000000000002
2022-09-03T05:54:16.591Z,0
2022-09-03T05:55:16.580Z,0
2022-09-03T05:56:16.591Z,1.5
2022-09-03T05:57:16.586Z,3.4000000000000004
2022-09-03T05:58:16.586Z,2.9000000000000004
2022-09-03T05:59:16.589Z,1.4000000000000001
2022-09-03T06:00:16.593Z,0.5
2022-09-03T06:01:16.596Z,0
2022-09-03T06:02:16.666Z,0
2022-09-03T06:03:16.731Z,0
2022-09-03T06:04:16.599Z,0
2022-09-03T06:05:16.597Z,0
2022-09-03T06:06:16.603Z,0.4
2022-09-03T06:07:16.597Z,0
2022-09-03T06:08:16.596Z,0
2022-09-03T06:09:16.600Z,0
2022-09-03T06:10:16.606Z,0
2022-09-03T06:11:16.605Z,0
2022-09-03T06:12:16.607Z,0
2022-09-03T06:13:16.605Z,0
2022-09-03T06:14:16.607Z,0
2022-09-03T06:15:16.606Z,0
2022-09-03T06:16:16.661Z,0
2022-09-03T06:17:16.614Z,0
2022-09-03T06:18:16.606Z,0
2022-09-03T06:19:16.622Z,0
2022-09-03T06:20:16.610Z,0
2022-09-03T06:21:16.615Z,0
2022-09-03T06:22:16.617Z,0.5
2022-09-03T06:23:16.624Z,0
2022-09-03T06:24:16.620Z,0
2022-09-03T06:25:16.624Z,0
2022-09-03T06:26:16.623Z,0
2022-09-03T06:27:16.618Z,0
2022-09-03T06:28:16.617Z,0
2022-09-03T06:29:16.629Z,3
2022-09-03T06:30:16.630Z,1.3
2022-09-03T06:31:16.655Z,0
2022-09-03T06:32:16.632Z,0
2022-09-03T06:33:16.624Z,0
2022-09-03T06:34:16.635Z,0
2022-09-03T06:35:16.621Z,0
2022-09-03T06:36:16.631Z,0
2022-09-03T06:37:16.634Z,0
2022-09-03T06:38:16.639Z,0
2022-09-03T06:39:16.785Z,0
2022-09-03T06:40:16.632Z,0
2022-09-03T06:41:16.630Z,0
2022-09-03T06:42:16.655Z,0
2022-09-03T06:43:16.639Z,0
2022-09-03T06:44:16.633Z,0
2022-09-03T06:45:16.633Z,0
2022-09-03T06:46:16.728Z,0
2022-09-03T06:47:16.637Z,0
2022-09-03T06:48:16.665Z,0
2022-09-03T06:49:16.627Z,0
2022-09-03T06:50:16.642Z,0
2022-09-03T06:51:16.647Z,0
2022-09-03T06:52:16.654Z,0
2022-09-03T06:53:16.647Z,0
2022-09-03T06:54:16.654Z,0
2022-09-03T06:55:16.645Z,0
2022-09-03T06:56:16.649Z,0
2022-09-03T06:57:16.655Z,0
2022-09-03T06:58:16.653Z,5.9
2022-09-03T06:59:16.660Z,3.9000000000000004
2022-09-03T07:00:16.691Z,0
2022-09-03T07:01:16.782Z,0
2022-09-03T07:02:16.797Z,2.7
2022-09-03T07:03:16.651Z,3.1
2022-09-03T07:04:19.207Z,5
2022-09-03T07:05:16.661Z,0
2022-09-03T07:06:16.660Z,0
2022-09-03T07:07:16.662Z,3.8000000000000003
2022-09-03T07:08:16.680Z,3.5
2022-09-03T07:09:16.663Z,0
2022-09-03T07:10:16.665Z,2.3000000000000003
2022-09-03T07:11:16.667Z,0
2022-09-03T07:12:16.667Z,0
2022-09-03T07:13:16.660Z,0
2022-09-03T07:14:16.669Z,0
2022-09-03T07:15:16.668Z,0
2022-09-03T07:16:16.812Z,0
2022-09-03T07:17:16.670Z,0
2022-09-03T07:18:16.760Z,3.1
2022-09-03T07:19:16.672Z,1.2000000000000002
2022-09-03T07:20:16.669Z,5.800000000000001
2022-09-03T07:21:16.666Z,3.1
2022-09-03T07:22:16.663Z,0
2022-09-03T07:23:16.669Z,0
2022-09-03T07:24:16.665Z,0
2022-09-03T07:25:16.672Z,0
2022-09-03T07:26:16.670Z,0
2022-09-03T07:27:16.668Z,0
2022-09-03T07:28:16.672Z,0
2022-09-03T07:29:16.670Z,0
2022-09-03T07:30:16.666Z,0
2022-09-03T07:31:16.677Z,0
2022-09-03T07:32:16.695Z,0
2022-09-03T07:33:16.674Z,0
2022-09-03T07:34:17.245Z,0
2022-09-03T07:35:16.671Z,0
2022-09-03T07:36:16.689Z,0
2022-09-03T07:37:16.677Z,0
2022-09-03T07:38:16.675Z,0
2022-09-03T07:39:16.858Z,0
2022-09-03T07:40:16.672Z,0
2022-09-03T07:41:17.550Z,0
2022-09-03T07:42:16.673Z,0
2022-09-03T07:43:16.667Z,0
2022-09-03T07:44:16.688Z,0
2022-09-03T07:45:16.673Z,0
2022-09-03T07:46:16.691Z,0
2022-09-03T07:47:16.676Z,0
2022-09-03T07:48:16.680Z,0
2022-09-03T07:49:16.683Z,0
2022-09-03T07:50:16.683Z,0
2022-09-03T07:51:16.685Z,0
2022-09-03T07:52:16.682Z,0
2022-09-03T07:53:16.685Z,0
2022-09-03T07:54:16.683Z,6
2022-09-03T07:55:16.686Z,2.6
2022-09-03T07:56:16.683Z,6.2
2022-09-03T07:57:16.680Z,5.1000000000000005
2022-09-03T07:58:16.680Z,0
2022-09-03T07:59:16.688Z,0
2022-09-03T08:00:16.677Z,1.7000000000000002
2022-09-03T08:01:16.732Z,0
2022-09-03T08:02:16.682Z,1.9000000000000001
2022-09-03T08:03:16.677Z,1.8
2022-09-03T08:04:16.682Z,0
2022-09-03T08:05:16.683Z,0
2022-09-03T08:06:16.681Z,0
2022-09-03T08:07:16.683Z,0
2022-09-03T08:08:16.686Z,0
2022-09-03T08:09:16.676Z,0
2022-09-03T08:10:16.676Z,0
2022-09-03T08:11:16.688Z,0
2022-09-03T08:12:16.695Z,2.5
2022-09-03T08:13:16.687Z,0
2022-09-03T08:14:16.685Z,0
2022-09-03T08:15:16.687Z,1.5
2022-09-03T08:16:16.750Z,0
2022-09-03T08:17:16.695Z,0
2022-09-03T08:18:16.752Z,0
2022-09-03T08:19:16.698Z,6.4
2022-09-03T08:20:16.699Z,3.4000000000000004
2022-09-03T08:21:16.696Z,0.5
2022-09-03T08:22:16.696Z,0
2022-09-03T08:23:16.691Z,1.9000000000000001
2022-09-03T08:24:16.713Z,5
2022-09-03T08:25:16.705Z,0
2022-09-03T08:26:16.706Z,0
2022-09-03T08:27:16.704Z,0
2022-09-03T08:28:16.700Z,0
2022-09-03T08:29:16.718Z,0
2022-09-03T08:30:16.714Z,0
2022-09-03T08:31:16.756Z,4.9
2022-09-03T08:32:16.707Z,2.7
2022-09-03T08:33:16.708Z,2
2022-09-03T08:34:16.711Z,0
2022-09-03T08:35:16.716Z,0
2022-09-03T08:36:16.713Z,0
2022-09-03T08:37:16.713Z,0
2022-09-03T08:38:16.716Z,0
2022-09-03T08:39:16.874Z,0
2022-09-03T08:40:16.717Z,0
2022-09-03T08:41:16.723Z,0
2022-09-03T08:42:16.723Z,0
2022-09-03T08:43:16.725Z,0
2022-09-03T08:44:16.726Z,0
2022-09-03T08:45:16.728Z,0
2022-09-03T08:46:16.772Z,0
2022-09-03T08:47:16.726Z,0
2022-09-03T08:48:16.724Z,0
2022-09-03T08:49:16.733Z,0
2022-09-03T08:50:16.727Z,0
2022-09-03T08:51:16.734Z,0
2022-09-03T08:52:16.728Z,0
2022-09-03T08:53:16.738Z,0
2022-09-03T08:54:16.738Z,0
2022-09-03T08:55:16.744Z,0
2022-09-03T08:56:16.730Z,0
2022-09-03T08:57:16.740Z,0
2022-09-03T08:58:16.797Z,0
2022-09-03T08:59:16.739Z,0
2022-09-03T09:00:16.741Z,0
2022-09-03T09:01:16.801Z,0
2022-09-03T09:02:16.854Z,0
2022-09-03T09:03:16.738Z,0
2022-09-03T09:04:16.734Z,0
2022-09-03T09:05:16.744Z,0
2022-09-03T09:06:16.750Z,0
2022-09-03T09:07:16.745Z,0
2022-09-03T09:08:16.741Z,0
2022-09-03T09:09:16.753Z,0
2022-09-03T09:10:16.750Z,0
2022-09-03T09:11:16.755Z,0
2022-09-03T09:12:16.750Z,0
2022-09-03T09:13:16.749Z,0
2022-09-03T09:14:16.754Z,0
2022-09-03T09:15:16.759Z,0
2022-09-03T09:16:16.796Z,0
2022-09-03T09:17:16.755Z,0
2022-09-03T09:18:16.795Z,0
2022-09-03T09:19:16.746Z,0
2022-09-03T09:20:16.754Z,4.4
2022-09-03T09:21:21.093Z,3.2
2022-09-03T09:22:16.758Z,2.3000000000000003
2022-09-03T09:23:16.754Z,0
2022-09-03T09:24:16.758Z,0
2022-09-03T09:25:16.762Z,1.7000000000000002
2022-09-03T09:26:16.765Z,1.4000000000000001
2022-09-03T09:27:16.767Z,5
2022-09-03T09:28:16.769Z,2.8000000000000003
2022-09-03T09:29:16.762Z,3.9000000000000004
2022-09-03T09:30:16.764Z,3.9000000000000004
2022-09-03T09:31:16.844Z,0.4
2022-09-03T09:32:16.759Z,4
2022-09-03T09:33:16.763Z,1
2022-09-03T09:34:16.768Z,0
2022-09-03T09:35:16.773Z,0
2022-09-03T09:36:16.768Z,0
2022-09-03T09:37:16.768Z,4.5
2022-09-03T09:38:16.767Z,2.1
2022-09-03T09:39:16.796Z,4
2022-09-03T09:40:16.771Z,0
2022-09-03T09:41:16.766Z,0
2022-09-03T09:42:16.768Z,0
2022-09-03T09:43:16.772Z,0
2022-09-03T09:44:16.767Z,0
2022-09-03T09:45:16.773Z,8.1
2022-09-03T09:46:16.828Z,3.7
2022-09-03T09:47:16.781Z,0
2022-09-03T09:48:16.774Z,0
2022-09-03T09:49:16.779Z,0
2022-09-03T09:50:20.225Z,0
2022-09-03T09:51:16.775Z,0
2022-09-03T09:52:16.784Z,5.2
2022-09-03T09:53:16.775Z,3.6
2022-09-03T09:54:16.773Z,0
2022-09-03T09:55:16.774Z,4.5
2022-09-03T09:56:16.781Z,3.8000000000000003
2022-09-03T09:57:16.779Z,1.2000000000000002
2022-09-03T09:58:16.778Z,0
2022-09-03T09:59:16.781Z,0
2022-09-03T10:00:16.865Z,0
2022-09-03T10:01:16.807Z,0
2022-09-03T10:02:21.858Z,2.1
2022-09-03T10:03:16.840Z,3.5
2022-09-03T10:04:16.785Z,2.1
2022-09-03T10:05:16.779Z,3.7
2022-09-03T10:06:16.783Z,0
2022-09-03T10:07:16.787Z,0
2022-09-03T10:08:16.789Z,0
2022-09-03T10:09:16.779Z,0
2022-09-03T10:10:16.788Z,0
2022-09-03T10:11:16.788Z,4.3
2022-09-03T10:12:16.789Z,5.2
2022-09-03T10:13:16.794Z,2.7
2022-09-03T10:14:16.793Z,0
2022-09-03T10:15:16.801Z,0
2022-09-03T10:16:16.840Z,0
2022-09-03T10:17:16.791Z,0
2022-09-03T10:18:16.887Z,0
2022-09-03T10:19:16.794Z,0
2022-09-03T10:20:16.800Z,0
2022-09-03T10:21:16.797Z,0
2022-09-03T10:22:16.791Z,0.8
2022-09-03T10:23:16.793Z,0
2022-09-03T10:24:16.792Z,3.4000000000000004
2022-09-03T10:25:16.803Z,0
2022-09-03T10:26:16.810Z,0
2022-09-03T10:27:16.800Z,0
2022-09-03T10:28:16.831Z,0
2022-09-03T10:29:16.795Z,0
2022-09-03T10:30:16.799Z,0
2022-09-03T10:31:16.857Z,0
2022-09-03T10:32:16.798Z,6.300000000000001
2022-09-03T10:33:16.804Z,7.2
2022-09-03T10:34:16.798Z,5.1000000000000005
2022-09-03T10:35:16.797Z,6.7
2022-09-03T10:36:16.806Z,1.9000000000000001
2022-09-03T10:37:16.799Z,2.7
2022-09-03T10:38:16.800Z,3.6
2022-09-03T10:39:16.884Z,3.6
2022-09-03T10:40:16.836Z,3.3000000000000003
2022-09-03T10:41:16.803Z,7
2022-09-03T10:42:16.795Z,8.3
2022-09-03T10:43:16.808Z,5.7
2022-09-03T10:44:16.805Z,7.2
2022-09-03T10:45:16.807Z,1.7000000000000002
2022-09-03T10:46:20.656Z,0
2022-09-03T10:47:16.811Z,1.6
2022-09-03T10:48:16.815Z,7
2022-09-03T10:49:16.806Z,6.6000000000000005
2022-09-03T10:50:16.810Z,6.2
2022-09-03T10:51:16.811Z,0
2022-09-03T10:52:16.813Z,0
2022-09-03T10:53:16.811Z,0
2022-09-03T10:54:16.820Z,0
2022-09-03T10:55:16.811Z,0
2022-09-03T10:56:16.807Z,3
2022-09-03T10:57:16.821Z,0
2022-09-03T10:58:16.864Z,0
2022-09-03T10:59:16.813Z,0
2022-09-03T11:00:16.812Z,3.1
2022-09-03T11:01:16.883Z,2.7
2022-09-03T11:02:16.865Z,6.4
2022-09-03T11:03:20.920Z,3.9000000000000004
2022-09-03T11:04:16.822Z,3.3000000000000003
2022-09-03T11:05:16.813Z,1.9000000000000001
2022-09-03T11:06:16.819Z,3.5
2022-09-03T11:07:16.820Z,5
2022-09-03T11:08:16.869Z,0
2022-09-03T11:09:16.821Z,0
2022-09-03T11:10:16.814Z,0
2022-09-03T11:11:16.822Z,0
2022-09-03T11:12:16.817Z,0
2022-09-03T11:13:16.817Z,0
2022-09-03T11:14:16.820Z,1.5
2022-09-03T11:15:16.824Z,0
2022-09-03T11:16:16.850Z,0
2022-09-03T11:17:16.821Z,0
2022-09-03T11:18:16.904Z,0
2022-09-03T11:19:16.816Z,4
2022-09-03T11:20:16.824Z,6
2022-09-03T11:21:16.818Z,2.5
2022-09-03T11:22:16.974Z,0.7000000000000001
2022-09-03T11:23:16.818Z,3.6
2022-09-03T11:24:16.827Z,2.7
2022-09-03T11:25:16.827Z,2.6
2022-09-03T11:26:16.817Z,4.4
2022-09-03T11:27:16.826Z,0
2022-09-03T11:28:16.827Z,0
2022-09-03T11:29:16.829Z,0
2022-09-03T11:30:16.824Z,2.4000000000000004
2022-09-03T11:31:16.908Z,0.6000000000000001
2022-09-03T11:32:16.830Z,3.7
2022-09-03T11:33:16.826Z,0
2022-09-03T11:34:17.765Z,0
2022-09-03T11:35:16.829Z,0
2022-09-03T11:36:16.820Z,0
2022-09-03T11:37:16.827Z,0
2022-09-03T11:38:16.829Z,0
2022-09-03T11:39:16.954Z,0
2022-09-03T11:40:16.832Z,0
2022-09-03T11:41:16.827Z,0
2022-09-03T11:42:16.833Z,0
2022-09-03T11:43:16.823Z,0
2022-09-03T11:44:16.826Z,4.9
2022-09-03T11:45:16.831Z,0
2022-09-03T11:46:16.838Z,0
2022-09-03T11:47:16.823Z,6.2
2022-09-03T11:48:16.828Z,9.200000000000001
2022-09-03T11:49:16.829Z,4.6000000000000005
2022-09-03T11:50:16.823Z,7.1000000000000005
2022-09-03T11:51:16.818Z,8.3
2022-09-03T11:52:16.828Z,5.7
2022-09-03T11:53:16.843Z,5.800000000000001
2022-09-03T11:54:16.829Z,4
2022-09-03T11:55:16.828Z,4.800000000000001
2022-09-03T11:56:16.827Z,4.2
2022-09-03T11:57:16.825Z,4.4
2022-09-03T11:58:16.826Z,5.9
2022-09-03T11:59:16.821Z,5
2022-09-03T12:00:16.832Z,7.300000000000001
2022-09-03T12:01:16.839Z,7.2
2022-09-03T12:02:16.894Z,5.6000000000000005
2022-09-03T12:03:16.867Z,3.2
2022-09-03T12:04:16.849Z,5.1000000000000005
2022-09-03T12:05:16.823Z,3
2022-09-03T12:06:16.830Z,4.5
2022-09-03T12:07:17.534Z,6.5
2022-09-03T12:08:16.823Z,5.4
2022-09-03T12:09:16.836Z,6.800000000000001
2022-09-03T12:10:16.834Z,4.2
2022-09-03T12:11:16.837Z,2.2
2022-09-03T12:12:16.832Z,5.6000000000000005
2022-09-03T12:13:16.887Z,4.1000000000000005
2022-09-03T12:14:16.834Z,2.8000000000000003
2022-09-03T12:15:16.825Z,2.7
2022-09-03T12:16:16.922Z,1.8
2022-09-03T12:17:16.828Z,3.9000000000000004
2022-09-03T12:18:16.837Z,5.4
2022-09-03T12:19:16.837Z,7.2
2022-09-03T12:20:16.829Z,4.6000000000000005
2022-09-03T12:21:16.837Z,3.2
2022-09-03T12:22:16.831Z,8.5
2022-09-03T12:23:16.953Z,8.4
2022-09-03T12:24:16.840Z,10.5
2022-09-03T12:25:16.846Z,9.4
2022-09-03T12:26:16.839Z,7.1000000000000005
2022-09-03T12:27:16.843Z,8.6
2022-09-03T12:28:16.851Z,7.5
2022-09-03T12:29:16.852Z,8.6
2022-09-03T12:30:16.846Z,9.600000000000001
2022-09-03T12:31:16.866Z,6.6000000000000005
2022-09-03T12:32:16.849Z,8
2022-09-03T12:33:16.876Z,6.2
2022-09-03T12:34:16.855Z,6.6000000000000005
2022-09-03T12:35:58.059Z,8
2022-09-03T12:36:16.863Z,7.5
2022-09-03T12:37:16.961Z,9.1
2022-09-03T12:38:18.645Z,3.2
2022-09-03T12:39:17.061Z,6.6000000000000005
2022-09-03T12:40:16.897Z,7.9
2022-09-03T12:41:23.670Z,7.5
2022-09-03T12:42:16.861Z,7.800000000000001
2022-09-03T12:44:16.864Z,4
2022-09-03T12:45:16.871Z,6.800000000000001
2022-09-03T12:46:17.709Z,7
2022-09-03T12:48:16.871Z,3.4000000000000004
2022-09-03T12:49:32.374Z,3.2
2022-09-03T12:50:17.199Z,7.7
2022-09-03T12:52:16.882Z,7.7
2022-09-03T12:53:16.889Z,6.5
2022-09-03T12:54:16.877Z,7.4
2022-09-03T12:55:16.886Z,6.300000000000001
2022-09-03T12:56:17.021Z,13.100000000000001
2022-09-03T12:57:16.878Z,11.200000000000001
2022-09-03T12:58:16.876Z,10.200000000000001
2022-09-03T12:59:16.874Z,11.4
2022-09-03T13:00:16.875Z,13.100000000000001
2022-09-03T13:01:17.021Z,8.8
2022-09-03T13:02:16.955Z,12.8
2022-09-03T13:03:16.891Z,7.7
2022-09-03T13:04:16.881Z,5.4
2022-09-03T13:05:16.900Z,7.5
2022-09-03T13:06:16.890Z,4.7
2022-09-03T13:07:16.896Z,7.800000000000001
2022-09-03T13:08:16.896Z,9.1
2022-09-03T13:09:16.902Z,9.4
2022-09-03T13:10:16.901Z,5.2
2022-09-03T13:11:16.895Z,12.3
2022-09-03T13:12:16.893Z,10.700000000000001
2022-09-03T13:13:16.913Z,7
2022-09-03T13:14:16.899Z,13.4
2022-09-03T13:15:16.905Z,8.700000000000001
2022-09-03T13:16:16.927Z,7
2022-09-03T13:17:16.905Z,7.6000000000000005
2022-09-03T13:18:16.899Z,5.300000000000001
2022-09-03T13:19:16.915Z,5.4
2022-09-03T13:20:16.909Z,5.1000000000000005
2022-09-03T13:21:16.906Z,5
2022-09-03T13:22:16.909Z,6.1000000000000005
2022-09-03T13:23:16.984Z,7.5
2022-09-03T13:24:16.918Z,2
2022-09-03T13:25:16.920Z,7.1000000000000005
2022-09-03T13:26:16.924Z,1.5
2022-09-03T13:27:16.922Z,5.1000000000000005
2022-09-03T13:28:16.906Z,3.7
2022-09-03T13:29:16.925Z,10.3
2022-09-03T13:30:16.922Z,8.4
2022-09-03T13:31:16.951Z,7.9
2022-09-03T13:32:16.932Z,4.7
2022-09-03T13:33:16.983Z,6.800000000000001
2022-09-03T13:34:16.923Z,4.7
2022-09-03T13:35:16.930Z,2.5
2022-09-03T13:36:16.932Z,9.600000000000001
2022-09-03T13:37:16.941Z,7.6000000000000005
2022-09-03T13:38:16.928Z,7.6000000000000005
2022-09-03T13:39:17.038Z,5.9
2022-09-03T13:40:16.931Z,9.4
2022-09-03T13:41:16.930Z,8.1
2022-09-03T13:42:16.932Z,8.1
2022-09-03T13:43:16.926Z,8.6
2022-09-03T13:44:16.925Z,3.8000000000000003
2022-09-03T13:45:16.935Z,7.1000000000000005
2022-09-03T13:46:16.994Z,4.7
2022-09-03T13:47:16.932Z,2.7
2022-09-03T13:48:16.941Z,13.100000000000001
2022-09-03T13:49:16.940Z,11.8
2022-09-03T13:50:16.933Z,4.6000000000000005